Time;durP1;ratioP1;P1;durP2;ratioP2;P2;SDS_P1;SDS_P2;PMS_P1;PMS_P2;Temp;Humidity;BMP_temperature;BMP_pressure;BME280_temperature;BME280_humidity;BME280_pressure;Samples;Min_cycle;Max_cycle;Signal;HPM_P1;HPM_P2
2023/08/23 00:02:21;;;;;;;213.80;17.33;;;;;;;;;;4924527;28;20601;-54
2023/08/23 00:04:47;;;;;;;140.03;20.33;;;;;;;;;;4926476;28;20277;-56
2023/08/23 00:07:12;;;;;;;207.77;36.28;;;;;;;;;;4924124;28;20306;-56
2023/08/23 00:09:38;;;;;;;224.73;117.07;;;;;;;;;;4925826;28;20038;-55
2023/08/23 00:12:03;;;;;;;185.03;38.83;;;;;;;;;;4922844;28;20084;-53
2023/08/23 00:14:28;;;;;;;278.92;189.40;;;;;;;;;;4922854;28;22265;-54
2023/08/23 00:16:53;;;;;;;264.10;160.77;;;;;;;;;;4924039;28;20028;-55
2023/08/23 00:19:19;;;;;;;241.83;50.73;;;;;;;;;;4924543;28;20378;-54
2023/08/23 00:21:44;;;;;;;138.68;15.73;;;;;;;;;;4924701;28;20369;-54
2023/08/23 00:24:09;;;;;;;135.23;12.13;;;;;;;;;;4922142;28;20028;-54
2023/08/23 00:26:34;;;;;;;293.10;176.17;;;;;;;;;;4925246;28;20271;-55
2023/08/23 00:29:00;;;;;;;151.73;11.43;;;;;;;;;;4925450;28;20031;-54
2023/08/23 00:31:25;;;;;;;288.97;103.37;;;;;;;;;;4926307;28;20046;-54
2023/08/23 00:33:50;;;;;;;369.30;330.37;;;;;;;;;;4926550;28;20016;-53
2023/08/23 00:36:15;;;;;;;339.30;174.20;;;;;;;;;;4923833;28;20047;-53
2023/08/23 00:38:41;;;;;;;267.80;126.90;;;;;;;;;;4925529;28;20278;-55
2023/08/23 00:41:06;;;;;;;224.53;136.60;;;;;;;;;;4922454;28;20868;-54
2023/08/23 00:43:31;;;;;;;158.80;20.97;;;;;;;;;;4925171;28;20245;-53
2023/08/23 00:45:57;;;;;;;139.47;34.00;;;;;;;;;;4924924;28;20051;-56
2023/08/23 00:48:22;;;;;;;268.35;96.30;;;;;;;;;;4921894;28;20704;-54
2023/08/23 00:50:48;;;;;;;224.18;65.45;;;;;;;;;;4922371;28;20042;-56
2023/08/23 00:53:13;;;;;;;224.77;56.78;;;;;;;;;;4922745;28;20051;-54
2023/08/23 00:55:39;;;;;;;110.90;10.63;;;;;;;;;;4924153;28;20653;-54
2023/08/23 00:58:05;;;;;;;171.30;54.92;;;;;;;;;;4924125;28;20078;-54
2023/08/23 01:00:33;;;;;;;133.73;21.60;;;;;;;;;;4922886;28;20095;-53
2023/08/23 01:02:59;;;;;;;125.10;10.80;;;;;;;;;;4924863;28;20340;-55
2023/08/23 01:05:30;;;;;;;338.42;133.82;;;;;;;;;;4922149;28;20118;-55
2023/08/23 01:08:13;;;;;;;156.53;24.80;;;;;;;;;;4923782;28;20016;-53
2023/08/23 01:10:44;;;;;;;295.63;210.63;;;;;;;;;;4924464;28;20827;-55
2023/08/23 01:13:20;;;;;;;282.40;223.93;;;;;;;;;;4923925;28;20023;-54
2023/08/23 01:15:45;;;;;;;142.52;14.77;;;;;;;;;;4923714;28;20090;-53
2023/08/23 01:18:11;;;;;;;296.92;239.43;;;;;;;;;;4924045;28;20028;-53
2023/08/23 01:20:37;;;;;;;121.03;13.48;;;;;;;;;;4923299;28;20542;-55
2023/08/23 01:23:05;;;;;;;164.85;16.60;;;;;;;;;;4927443;28;20032;-54
2023/08/23 01:25:31;;;;;;;117.80;17.15;;;;;;;;;;4922585;28;20596;-56
2023/08/23 01:27:56;;;;;;;144.57;24.15;;;;;;;;;;4925855;28;20268;-56
2023/08/23 01:30:22;;;;;;;200.40;13.50;;;;;;;;;;4921301;28;20433;-55
2023/08/23 01:32:53;;;;;;;289.33;206.00;;;;;;;;;;4934592;28;20024;-55
2023/08/23 01:35:21;;;;;;;226.05;15.90;;;;;;;;;;4926727;28;20023;-54
2023/08/23 01:37:48;;;;;;;139.23;10.77;;;;;;;;;;4927742;28;20012;-55
2023/08/23 01:40:13;;;;;;;160.63;25.42;;;;;;;;;;4927038;28;20027;-53
2023/08/23 01:42:39;;;;;;;155.43;11.80;;;;;;;;;;4927914;28;20022;-54
2023/08/23 01:45:05;;;;;;;128.93;10.40;;;;;;;;;;4927468;28;20031;-55
2023/08/23 01:47:30;;;;;;;210.80;14.55;;;;;;;;;;4926406;28;20462;-55
2023/08/23 01:49:55;;;;;;;188.55;13.35;;;;;;;;;;4927090;28;20028;-53
2023/08/23 01:52:20;;;;;;;191.67;14.93;;;;;;;;;;4925175;28;20097;-52
2023/08/23 01:54:45;;;;;;;233.50;118.10;;;;;;;;;;4929216;28;20034;-55
2023/08/23 01:57:11;;;;;;;178.00;12.57;;;;;;;;;;4926305;28;20051;-52
2023/08/23 01:59:37;;;;;;;212.70;72.67;;;;;;;;;;4926621;28;20053;-52
2023/08/23 02:02:02;;;;;;;156.82;31.92;;;;;;;;;;4927941;28;20279;-53
2023/08/23 02:04:28;;;;;;;246.07;29.95;;;;;;;;;;4925272;28;20430;-53
2023/08/23 02:06:53;;;;;;;140.32;16.73;;;;;;;;;;4927476;28;20157;-53
2023/08/23 02:09:18;;;;;;;203.95;25.83;;;;;;;;;;4927191;28;20024;-52
2023/08/23 02:11:43;;;;;;;147.20;11.80;;;;;;;;;;4925947;28;20172;-53
2023/08/23 02:14:08;;;;;;;170.70;61.90;;;;;;;;;;4927327;28;20034;-52
2023/08/23 02:16:34;;;;;;;134.60;10.93;;;;;;;;;;4925617;28;20998;-52
2023/08/23 02:18:59;;;;;;;150.15;12.23;;;;;;;;;;4927342;28;20335;-53
2023/08/23 02:21:24;;;;;;;211.27;14.40;;;;;;;;;;4924504;28;20625;-53
2023/08/23 02:23:49;;;;;;;187.77;70.33;;;;;;;;;;4926548;28;20516;-53
2023/08/23 02:26:15;;;;;;;272.43;127.17;;;;;;;;;;4924667;28;21017;-53
2023/08/23 02:28:40;;;;;;;117.30;11.90;;;;;;;;;;4926556;28;20278;-52
2023/08/23 02:31:05;;;;;;;118.70;10.57;;;;;;;;;;4925993;28;20409;-53
2023/08/23 02:33:30;;;;;;;239.30;15.77;;;;;;;;;;4925786;28;20524;-52
2023/08/23 02:35:56;;;;;;;121.30;10.32;;;;;;;;;;4927539;28;20337;-52
2023/08/23 02:38:21;;;;;;;209.87;19.20;;;;;;;;;;4926247;28;20027;-56
2023/08/23 02:40:46;;;;;;;200.38;59.60;;;;;;;;;;4926772;28;20035;-55
2023/08/23 02:43:12;;;;;;;118.53;10.90;;;;;;;;;;4924981;28;20571;-53
2023/08/23 02:45:40;;;;;;;119.15;10.43;;;;;;;;;;4925342;28;20565;-55
2023/08/23 02:48:09;;;;;;;170.57;12.60;;;;;;;;;;4926242;28;20513;-52
2023/08/23 02:50:35;;;;;;;207.48;14.80;;;;;;;;;;4924193;28;20049;-55
2023/08/23 02:53:00;;;;;;;146.45;11.93;;;;;;;;;;4926805;28;20910;-53
2023/08/23 02:55:25;;;;;;;219.18;15.50;;;;;;;;;;4924638;28;20043;-52
2023/08/23 02:57:50;;;;;;;133.60;11.80;;;;;;;;;;4927454;28;20475;-54
2023/08/23 03:00:16;;;;;;;142.80;12.52;;;;;;;;;;4925396;28;20312;-53
2023/08/23 03:02:41;;;;;;;148.25;11.50;;;;;;;;;;4927157;28;20039;-53
2023/08/23 03:05:06;;;;;;;129.47;10.77;;;;;;;;;;4927012;28;20020;-53
2023/08/23 03:07:32;;;;;;;199.88;14.40;;;;;;;;;;4925198;28;20267;-54
2023/08/23 03:09:57;;;;;;;160.63;12.50;;;;;;;;;;4925135;28;20297;-54
2023/08/23 03:12:22;;;;;;;207.68;14.85;;;;;;;;;;4924015;28;20789;-53
2023/08/23 03:14:48;;;;;;;106.43;10.70;;;;;;;;;;4926167;28;20454;-53
2023/08/23 03:17:13;;;;;;;150.17;11.87;;;;;;;;;;4927743;28;20450;-54
2023/08/23 03:19:38;;;;;;;111.28;10.82;;;;;;;;;;4924137;28;20652;-55
2023/08/23 03:22:03;;;;;;;92.10;10.03;;;;;;;;;;4926789;28;20024;-55
2023/08/23 03:24:29;;;;;;;235.43;16.27;;;;;;;;;;4924291;28;20019;-53
2023/08/23 03:26:54;;;;;;;130.97;11.33;;;;;;;;;;4928223;28;20480;-55
2023/08/23 03:29:19;;;;;;;124.07;10.73;;;;;;;;;;4925150;28;20362;-54
2023/08/23 03:31:44;;;;;;;120.80;10.53;;;;;;;;;;4923805;28;20399;-55
2023/08/23 03:34:09;;;;;;;118.33;10.57;;;;;;;;;;4925975;28;20350;-54
2023/08/23 03:36:35;;;;;;;186.43;14.23;;;;;;;;;;4924089;28;20329;-55
2023/08/23 03:39:00;;;;;;;132.57;11.50;;;;;;;;;;4926421;28;20118;-54
2023/08/23 03:41:25;;;;;;;156.43;12.50;;;;;;;;;;4925343;28;20041;-55
2023/08/23 03:43:50;;;;;;;133.35;11.65;;;;;;;;;;4927320;28;20732;-55
2023/08/23 03:46:16;;;;;;;135.23;11.48;;;;;;;;;;4925558;28;20044;-56
2023/08/23 03:48:41;;;;;;;87.68;8.82;;;;;;;;;;4925744;28;20034;-54
2023/08/23 03:51:06;;;;;;;111.27;10.17;;;;;;;;;;4924115;28;20098;-56
2023/08/23 03:53:31;;;;;;;219.23;15.20;;;;;;;;;;4922922;28;20087;-56
2023/08/23 03:55:58;;;;;;;116.97;10.82;;;;;;;;;;4925052;28;20295;-54
2023/08/23 03:58:24;;;;;;;160.00;12.45;;;;;;;;;;4924683;28;20035;-57
2023/08/23 04:00:50;;;;;;;146.27;11.23;;;;;;;;;;4923762;28;20051;-56
2023/08/23 04:03:15;;;;;;;100.85;10.05;;;;;;;;;;4926709;28;20126;-56
2023/08/23 04:05:40;;;;;;;111.25;10.73;;;;;;;;;;4922208;28;20035;-57
2023/08/23 04:08:06;;;;;;;139.80;11.03;;;;;;;;;;4925054;28;20040;-55
2023/08/23 04:10:32;;;;;;;158.30;11.93;;;;;;;;;;4922718;28;20662;-55
2023/08/23 04:12:57;;;;;;;130.55;10.82;;;;;;;;;;4925703;28;20031;-55
2023/08/23 04:15:22;;;;;;;169.27;12.17;;;;;;;;;;4922894;28;20047;-55
2023/08/23 04:17:48;;;;;;;112.10;10.17;;;;;;;;;;4926526;28;20273;-54
2023/08/23 04:20:14;;;;;;;113.00;10.00;;;;;;;;;;4926528;28;20293;-56
2023/08/23 04:22:39;;;;;;;201.73;14.82;;;;;;;;;;4923684;28;20540;-55
2023/08/23 04:25:05;;;;;;;100.68;9.82;;;;;;;;;;4925186;28;20569;-56
2023/08/23 04:27:30;;;;;;;203.20;14.38;;;;;;;;;;4922684;28;20023;-54
2023/08/23 04:29:55;;;;;;;186.32;12.80;;;;;;;;;;4923870;28;20485;-54
2023/08/23 04:32:21;;;;;;;134.23;10.67;;;;;;;;;;4925801;28;20044;-56
2023/08/23 04:34:46;;;;;;;118.13;10.10;;;;;;;;;;4931255;28;20287;-57
2023/08/23 04:37:11;;;;;;;136.40;10.73;;;;;;;;;;4928083;28;20282;-54
2023/08/23 04:39:36;;;;;;;207.18;14.45;;;;;;;;;;4925811;28;20473;-55
2023/08/23 04:42:02;;;;;;;127.53;10.00;;;;;;;;;;4923068;28;20042;-56
2023/08/23 04:44:27;;;;;;;204.40;13.20;;;;;;;;;;4921762;28;20275;-56
2023/08/23 04:46:52;;;;;;;98.97;9.73;;;;;;;;;;4923740;28;20796;-55
2023/08/23 04:49:18;;;;;;;145.65;11.35;;;;;;;;;;4923801;28;20039;-58
2023/08/23 04:51:43;;;;;;;136.87;10.40;;;;;;;;;;4921490;28;20065;-55
2023/08/23 04:54:08;;;;;;;97.27;9.20;;;;;;;;;;4924648;28;20251;-54
2023/08/23 04:56:34;;;;;;;165.83;12.37;;;;;;;;;;4922410;28;20536;-55
2023/08/23 04:58:59;;;;;;;137.20;10.75;;;;;;;;;;4924529;28;20283;-54
2023/08/23 05:01:24;;;;;;;136.73;11.02;;;;;;;;;;4923549;28;20040;-54
2023/08/23 05:03:49;;;;;;;155.97;10.80;;;;;;;;;;4921694;28;20122;-56
2023/08/23 05:06:15;;;;;;;129.75;10.43;;;;;;;;;;4932348;28;20283;-55
2023/08/23 05:08:40;;;;;;;175.60;13.43;;;;;;;;;;4928011;28;20050;-55
2023/08/23 05:11:05;;;;;;;126.27;10.07;;;;;;;;;;4927735;28;20106;-55
2023/08/23 05:13:30;;;;;;;177.20;12.27;;;;;;;;;;4927654;28;20259;-57
2023/08/23 05:15:57;;;;;;;106.40;14.57;;;;;;;;;;4927085;28;20042;-54
2023/08/23 05:18:22;;;;;;;148.25;11.77;;;;;;;;;;4929325;28;20358;-54
2023/08/23 05:21:03;;;;;;;147.18;11.10;;;;;;;;;;4928688;28;20061;-53
2023/08/23 05:23:28;;;;;;;176.50;12.73;;;;;;;;;;4927219;28;20038;-53
2023/08/23 05:25:54;;;;;;;162.57;13.47;;;;;;;;;;4925922;28;20043;-52
2023/08/23 05:28:19;;;;;;;118.03;11.88;;;;;;;;;;4929266;28;20354;-54
2023/08/23 05:30:45;;;;;;;104.78;9.95;;;;;;;;;;4925525;28;20040;-55
2023/08/23 05:33:11;;;;;;;146.70;11.23;;;;;;;;;;4926724;28;20317;-57
2023/08/23 05:35:36;;;;;;;172.02;12.68;;;;;;;;;;4928103;28;20481;-55
2023/08/23 05:38:01;;;;;;;141.87;12.97;;;;;;;;;;4930050;28;20474;-54
2023/08/23 05:40:27;;;;;;;178.23;12.82;;;;;;;;;;4927993;28;20024;-55
2023/08/23 05:42:52;;;;;;;184.77;64.55;;;;;;;;;;4928129;28;20020;-54
2023/08/23 05:45:17;;;;;;;110.53;11.30;;;;;;;;;;4927295;28;20039;-53
2023/08/23 05:47:43;;;;;;;222.43;14.27;;;;;;;;;;4926122;28;20259;-56
2023/08/23 05:50:08;;;;;;;363.30;276.07;;;;;;;;;;4927386;28;20615;-54
2023/08/23 05:52:33;;;;;;;463.63;356.20;;;;;;;;;;4926334;28;20424;-54
2023/08/23 05:54:58;;;;;;;274.63;127.00;;;;;;;;;;4928586;28;20027;-55
2023/08/23 05:57:24;;;;;;;224.37;101.77;;;;;;;;;;4926722;28;20561;-55
2023/08/23 05:59:49;;;;;;;360.57;298.43;;;;;;;;;;4927157;28;20438;-52
2023/08/23 06:02:14;;;;;;;434.40;390.00;;;;;;;;;;4927243;28;20525;-55
2023/08/23 06:04:39;;;;;;;414.50;292.53;;;;;;;;;;4925641;28;20429;-54
2023/08/23 06:07:05;;;;;;;411.87;359.30;;;;;;;;;;4930459;28;20062;-54
2023/08/23 06:09:32;;;;;;;507.73;361.45;;;;;;;;;;4925245;28;20259;-54
2023/08/23 06:11:58;;;;;;;459.73;413.40;;;;;;;;;;4927233;28;20027;-54
2023/08/23 06:14:26;;;;;;;421.52;360.55;;;;;;;;;;4927015;28;20098;-57
2023/08/23 06:16:52;;;;;;;442.98;355.63;;;;;;;;;;4929159;28;20036;-55
2023/08/23 06:19:17;;;;;;;384.58;340.60;;;;;;;;;;4927896;28;20027;-58
2023/08/23 06:21:42;;;;;;;424.30;319.87;;;;;;;;;;4924821;28;20054;-57
2023/08/23 06:24:08;;;;;;;440.83;392.52;;;;;;;;;;4927186;28;20404;-56
2023/08/23 06:26:33;;;;;;;434.77;322.27;;;;;;;;;;4925415;28;20046;-57
2023/08/23 06:28:58;;;;;;;462.77;413.77;;;;;;;;;;4928565;28;20019;-56
2023/08/23 06:31:24;;;;;;;440.23;364.40;;;;;;;;;;4928944;28;20291;-57
2023/08/23 06:33:49;;;;;;;428.00;382.17;;;;;;;;;;4925555;28;20024;-57
2023/08/23 06:36:14;;;;;;;457.07;408.13;;;;;;;;;;4928603;28;20342;-58
2023/08/23 06:38:42;;;;;;;439.97;393.23;;;;;;;;;;4928692;28;20445;-57
2023/08/23 06:41:08;;;;;;;432.67;388.63;;;;;;;;;;4927533;28;20039;-55
2023/08/23 06:43:33;;;;;;;440.88;339.52;;;;;;;;;;4926066;28;20386;-56
2023/08/23 06:46:00;;;;;;;467.03;417.03;;;;;;;;;;4926106;28;20747;-57
2023/08/23 06:48:25;;;;;;;446.63;399.48;;;;;;;;;;4927386;28;20567;-56
2023/08/23 06:50:51;;;;;;;381.33;322.00;;;;;;;;;;4924027;28;20497;-57
2023/08/23 06:53:16;;;;;;;425.23;372.67;;;;;;;;;;4925862;28;20276;-57
2023/08/23 06:55:41;;;;;;;391.67;344.17;;;;;;;;;;4926317;28;20358;-56
2023/08/23 06:58:07;;;;;;;410.95;366.08;;;;;;;;;;4927455;28;20039;-56
2023/08/23 07:00:33;;;;;;;530.10;430.60;;;;;;;;;;4924706;28;20043;-57
2023/08/23 07:02:58;;;;;;;385.85;347.90;;;;;;;;;;4927447;28;20031;-56
2023/08/23 07:05:24;;;;;;;351.77;314.43;;;;;;;;;;4929714;28;20560;-57
2023/08/23 07:07:49;;;;;;;487.50;436.52;;;;;;;;;;4925469;28;20323;-58
2023/08/23 07:10:14;;;;;;;437.10;393.53;;;;;;;;;;4930456;28;20752;-57
2023/08/23 07:12:39;;;;;;;443.73;376.70;;;;;;;;;;4931975;28;20030;-57
2023/08/23 07:15:05;;;;;;;448.23;402.80;;;;;;;;;;4930613;28;20139;-59
2023/08/23 07:17:30;;;;;;;430.15;387.73;;;;;;;;;;4929762;28;20029;-59
2023/08/23 07:19:56;;;;;;;470.83;420.75;;;;;;;;;;4928578;28;20019;-58
2023/08/23 07:22:21;;;;;;;456.20;407.55;;;;;;;;;;4929636;28;20035;-59
2023/08/23 07:24:46;;;;;;;451.33;402.33;;;;;;;;;;4929167;28;20023;-60
2023/08/23 07:27:11;;;;;;;442.27;399.10;;;;;;;;;;4930785;28;20588;-59
2023/08/23 07:29:37;;;;;;;574.47;511.60;;;;;;;;;;4926946;28;20056;-58
2023/08/23 07:32:04;;;;;;;401.53;360.13;;;;;;;;;;4930346;28;20042;-58
2023/08/23 07:34:29;;;;;;;450.25;404.67;;;;;;;;;;4931884;28;20058;-59
2023/08/23 07:36:54;;;;;;;436.92;392.02;;;;;;;;;;4929090;28;20446;-57
2023/08/23 07:39:20;;;;;;;512.93;465.60;;;;;;;;;;4930176;28;20042;-58
2023/08/23 07:41:45;;;;;;;528.65;473.65;;;;;;;;;;4929157;28;20569;-60
2023/08/23 07:44:10;;;;;;;527.03;475.83;;;;;;;;;;4930407;28;20038;-58
2023/08/23 07:46:35;;;;;;;478.30;429.33;;;;;;;;;;4928399;28;20123;-57
2023/08/23 07:49:00;;;;;;;471.93;426.90;;;;;;;;;;4929366;28;20071;-56
2023/08/23 07:51:26;;;;;;;421.20;376.27;;;;;;;;;;4928537;28;20501;-59
2023/08/23 07:53:51;;;;;;;419.60;366.23;;;;;;;;;;4927849;28;20561;-58
2023/08/23 07:56:17;;;;;;;406.27;364.43;;;;;;;;;;4930769;28;20051;-58
2023/08/23 07:58:43;;;;;;;584.38;519.40;;;;;;;;;;4928487;28;20024;-58
2023/08/23 08:01:08;;;;;;;423.15;380.95;;;;;;;;;;4926774;28;20045;-58
2023/08/23 08:03:33;;;;;;;408.70;367.80;;;;;;;;;;4927558;28;20039;-57
2023/08/23 08:05:58;;;;;;;420.20;376.47;;;;;;;;;;4927192;28;20043;-59
2023/08/23 08:08:24;;;;;;;502.40;453.80;;;;;;;;;;4928461;28;20044;-57
2023/08/23 08:10:49;;;;;;;530.97;441.77;;;;;;;;;;4926412;28;20302;-57
2023/08/23 08:13:14;;;;;;;439.83;393.87;;;;;;;;;;4930434;28;20239;-57
2023/08/23 08:15:40;;;;;;;461.53;407.80;;;;;;;;;;4928103;28;20410;-57
2023/08/23 08:18:05;;;;;;;407.00;367.43;;;;;;;;;;4928893;28;20353;-58
2023/08/23 08:20:30;;;;;;;411.37;368.03;;;;;;;;;;4927490;28;20032;-58
2023/08/23 08:22:55;;;;;;;407.53;367.90;;;;;;;;;;4930042;28;20028;-56
2023/08/23 08:25:21;;;;;;;475.37;427.60;;;;;;;;;;4928825;28;20167;-56
2023/08/23 08:27:46;;;;;;;470.43;394.67;;;;;;;;;;4928088;28;20521;-56
2023/08/23 08:30:11;;;;;;;589.43;533.00;;;;;;;;;;4928229;28;20741;-58
2023/08/23 08:32:36;;;;;;;389.53;350.77;;;;;;;;;;4929380;28;20436;-58
2023/08/23 08:35:02;;;;;;;482.23;434.70;;;;;;;;;;4928432;28;20027;-57
2023/08/23 08:37:27;;;;;;;407.75;366.48;;;;;;;;;;4929019;28;20501;-57
2023/08/23 08:39:52;;;;;;;830.07;547.93;;;;;;;;;;4928531;28;20016;-57
2023/08/23 08:42:18;;;;;;;425.73;381.97;;;;;;;;;;4928200;28;20035;-58
2023/08/23 08:44:46;;;;;;;448.90;399.02;;;;;;;;;;4927176;28;20028;-58
2023/08/23 08:47:11;;;;;;;425.60;383.65;;;;;;;;;;4926939;28;20039;-57
2023/08/23 08:49:36;;;;;;;548.53;491.03;;;;;;;;;;4927161;28;20020;-58
2023/08/23 08:52:05;;;;;;;431.30;388.80;;;;;;;;;;4927175;28;20040;-57
2023/08/23 08:54:32;;;;;;;415.20;374.88;;;;;;;;;;4928969;28;20030;-56
2023/08/23 08:56:57;;;;;;;682.30;617.28;;;;;;;;;;4929018;28;20031;-56
2023/08/23 08:59:23;;;;;;;488.67;437.77;;;;;;;;;;4929750;28;20046;-56
2023/08/23 09:01:49;;;;;;;487.43;434.00;;;;;;;;;;4927714;28;20039;-57
2023/08/23 09:04:14;;;;;;;515.85;422.25;;;;;;;;;;4931839;28;20589;-56
2023/08/23 09:06:40;;;;;;;477.70;431.30;;;;;;;;;;4928031;28;20037;-57
2023/08/23 09:09:06;;;;;;;412.70;372.20;;;;;;;;;;4932831;28;20467;-56
2023/08/23 09:11:32;;;;;;;438.88;394.27;;;;;;;;;;4926452;28;20040;-56
2023/08/23 09:13:57;;;;;;;542.05;489.40;;;;;;;;;;4928462;28;20031;-55
2023/08/23 09:16:26;;;;;;;526.73;472.43;;;;;;;;;;4927675;28;20046;-57
2023/08/23 09:18:51;;;;;;;417.52;354.30;;;;;;;;;;4927877;28;20020;-56
2023/08/23 09:21:19;;;;;;;439.53;392.37;;;;;;;;;;4926881;28;20095;-56
2023/08/23 09:23:45;;;;;;;398.88;357.20;;;;;;;;;;4929117;28;20030;-58
2023/08/23 09:26:11;;;;;;;480.83;434.05;;;;;;;;;;4927693;28;20103;-57
2023/08/23 09:28:37;;;;;;;563.27;501.60;;;;;;;;;;4928513;28;20039;-56
2023/08/23 09:31:02;;;;;;;625.33;563.25;;;;;;;;;;4927183;28;20036;-58
2023/08/23 09:33:28;;;;;;;556.43;495.87;;;;;;;;;;4927308;28;20083;-56
2023/08/23 09:35:58;;;;;;;470.25;394.15;;;;;;;;;;4925437;28;20048;-57
2023/08/23 09:38:23;;;;;;;571.08;509.95;;;;;;;;;;4928493;28;20090;-57
2023/08/23 09:40:49;;;;;;;532.38;440.70;;;;;;;;;;4926793;28;20044;-57
2023/08/23 09:43:15;;;;;;;510.55;429.73;;;;;;;;;;4929051;28;20031;-57
2023/08/23 09:45:41;;;;;;;365.33;317.70;;;;;;;;;;4928432;28;20047;-57
2023/08/23 09:48:08;;;;;;;577.13;512.53;;;;;;;;;;4930129;28;20036;-57
2023/08/23 09:50:33;;;;;;;525.00;472.23;;;;;;;;;;4926953;28;20047;-57
2023/08/23 09:53:06;;;;;;;398.55;358.23;;;;;;;;;;4930028;28;20109;-57
2023/08/23 09:55:34;;;;;;;544.20;491.30;;;;;;;;;;4931368;28;20032;-57
2023/08/23 09:58:00;;;;;;;531.10;452.00;;;;;;;;;;4931485;28;21163;-57
2023/08/23 10:00:27;;;;;;;367.63;326.55;;;;;;;;;;4929029;28;20047;-57
2023/08/23 10:02:52;;;;;;;445.02;370.50;;;;;;;;;;4932559;28;20035;-57
2023/08/23 10:05:18;;;;;;;370.42;330.27;;;;;;;;;;4930731;28;20034;-58
2023/08/23 10:07:43;;;;;;;380.75;327.42;;;;;;;;;;4930323;28;20359;-57
2023/08/23 10:10:10;;;;;;;450.63;407.23;;;;;;;;;;4932664;28;20720;-57
2023/08/23 10:12:36;;;;;;;355.10;319.67;;;;;;;;;;4933511;28;20801;-58
2023/08/23 10:15:02;;;;;;;366.88;328.63;;;;;;;;;;4931113;28;20457;-58
2023/08/23 10:17:29;;;;;;;404.38;361.83;;;;;;;;;;4931370;28;20023;-56
2023/08/23 10:19:55;;;;;;;568.80;500.23;;;;;;;;;;4929239;28;20031;-57
2023/08/23 10:22:20;;;;;;;411.03;367.13;;;;;;;;;;4931316;28;20046;-57
2023/08/23 10:24:47;;;;;;;491.92;438.30;;;;;;;;;;4931555;28;20287;-56
2023/08/23 10:27:12;;;;;;;372.70;333.00;;;;;;;;;;4931245;28;20153;-56
2023/08/23 10:29:37;;;;;;;447.07;399.37;;;;;;;;;;4931910;28;20031;-58
2023/08/23 10:32:10;;;;;;;693.55;585.38;;;;;;;;;;4930638;28;20085;-57
2023/08/23 10:34:35;;;;;;;563.13;509.85;;;;;;;;;;4932733;28;20429;-57
2023/08/23 10:37:11;;;;;;;558.83;488.20;;;;;;;;;;4929231;28;20548;-57
2023/08/23 10:39:37;;;;;;;388.63;348.40;;;;;;;;;;4930708;28;20027;-57
2023/08/23 10:42:02;;;;;;;420.53;378.40;;;;;;;;;;4929651;28;20121;-56
2023/08/23 10:44:28;;;;;;;593.80;531.60;;;;;;;;;;4933958;28;20271;-57
2023/08/23 10:46:53;;;;;;;468.67;396.33;;;;;;;;;;4929426;28;20039;-58
2023/08/23 10:49:21;;;;;;;502.23;452.40;;;;;;;;;;4931464;28;20046;-56
2023/08/23 10:51:47;;;;;;;528.28;438.27;;;;;;;;;;4931889;28;20494;-57
2023/08/23 10:54:13;;;;;;;445.77;384.30;;;;;;;;;;4932501;28;20046;-57
2023/08/23 10:56:38;;;;;;;724.03;650.70;;;;;;;;;;4930803;28;20040;-58
2023/08/23 10:59:06;;;;;;;536.70;479.88;;;;;;;;;;4930063;28;20049;-56
2023/08/23 11:01:31;;;;;;;427.65;382.48;;;;;;;;;;4930590;28;20039;-57
2023/08/23 11:03:57;;;;;;;453.40;376.00;;;;;;;;;;4928060;28;20027;-58
2023/08/23 11:06:22;;;;;;;525.53;473.70;;;;;;;;;;4929673;28;20583;-58
2023/08/23 11:08:47;;;;;;;443.03;386.90;;;;;;;;;;4929882;28;20405;-56
2023/08/23 11:11:13;;;;;;;374.30;332.35;;;;;;;;;;4930056;28;20275;-59
2023/08/23 11:13:38;;;;;;;418.15;374.30;;;;;;;;;;4932246;28;20035;-57
2023/08/23 11:16:04;;;;;;;419.95;377.13;;;;;;;;;;4928366;28;20299;-58
2023/08/23 11:18:29;;;;;;;501.83;450.55;;;;;;;;;;4929257;28;20027;-57
2023/08/23 11:20:55;;;;;;;611.07;537.73;;;;;;;;;;4929989;28;20121;-56
2023/08/23 11:23:20;;;;;;;523.53;474.67;;;;;;;;;;4931754;28;20638;-58
2023/08/23 11:25:45;;;;;;;521.57;469.43;;;;;;;;;;4927699;28;20124;-58
2023/08/23 11:28:12;;;;;;;623.30;537.10;;;;;;;;;;4929235;28;20038;-58
2023/08/23 11:30:38;;;;;;;497.13;447.67;;;;;;;;;;4931976;28;20031;-63
2023/08/23 11:33:03;;;;;;;535.00;439.92;;;;;;;;;;4931775;28;20028;-57
2023/08/23 11:35:28;;;;;;;507.88;459.80;;;;;;;;;;4932188;28;20047;-59
2023/08/23 11:37:54;;;;;;;455.37;377.87;;;;;;;;;;4930774;28;20027;-57
2023/08/23 11:40:22;;;;;;;558.85;503.63;;;;;;;;;;4929885;28;20034;-59
2023/08/23 11:42:47;;;;;;;457.58;414.10;;;;;;;;;;4930898;28;20019;-59
2023/08/23 11:45:12;;;;;;;469.77;424.30;;;;;;;;;;4930364;28;20024;-57
2023/08/23 11:47:38;;;;;;;481.60;431.33;;;;;;;;;;4931916;28;20023;-56
2023/08/23 11:50:10;;;;;;;467.40;372.45;;;;;;;;;;4926283;28;20116;-56
2023/08/23 11:52:35;;;;;;;559.13;504.90;;;;;;;;;;4930400;28;20051;-57
2023/08/23 11:55:04;;;;;;;581.20;461.58;;;;;;;;;;4929196;28;20424;-58
2023/08/23 11:57:33;;;;;;;402.73;362.38;;;;;;;;;;4929851;28;20043;-58
2023/08/23 11:59:58;;;;;;;514.58;390.15;;;;;;;;;;4931323;28;20492;-55
2023/08/23 12:02:24;;;;;;;399.47;356.80;;;;;;;;;;4929358;28;20445;-58
2023/08/23 12:04:49;;;;;;;423.90;369.40;;;;;;;;;;4929965;28;20082;-55
2023/08/23 12:07:15;;;;;;;411.00;367.43;;;;;;;;;;4928701;28;20032;-57
2023/08/23 12:09:40;;;;;;;451.30;394.10;;;;;;;;;;4930793;28;20042;-58
2023/08/23 12:12:05;;;;;;;428.40;346.20;;;;;;;;;;4928697;28;20365;-56
2023/08/23 12:14:30;;;;;;;455.27;407.02;;;;;;;;;;4931432;28;20038;-57
2023/08/23 12:16:56;;;;;;;441.47;370.73;;;;;;;;;;4929776;28;20039;-56
2023/08/23 12:19:21;;;;;;;332.52;298.25;;;;;;;;;;4931417;28;20023;-58
2023/08/23 12:21:47;;;;;;;435.95;385.88;;;;;;;;;;4928573;28;20035;-56
2023/08/23 12:24:12;;;;;;;416.35;372.95;;;;;;;;;;4930545;28;20027;-57
2023/08/23 12:26:37;;;;;;;432.87;390.80;;;;;;;;;;4929023;28;20035;-56
2023/08/23 12:29:03;;;;;;;428.15;335.35;;;;;;;;;;4929205;28;20362;-57
2023/08/23 12:31:28;;;;;;;392.58;353.38;;;;;;;;;;4916664;28;20031;-58
2023/08/23 12:33:53;;;;;;;495.40;411.80;;;;;;;;;;4928598;28;20023;-58
2023/08/23 12:36:20;;;;;;;426.07;358.10;;;;;;;;;;4929046;28;20205;-56
2023/08/23 12:38:45;;;;;;;329.35;294.00;;;;;;;;;;4928613;28;20432;-57
2023/08/23 12:41:11;;;;;;;462.30;214.40;;;;;;;;;;4927110;28;20596;-57
2023/08/23 12:43:36;;;;;;;428.15;382.58;;;;;;;;;;4929447;28;20027;-56
2023/08/23 12:46:01;;;;;;;362.00;259.77;;;;;;;;;;4928600;28;20032;-56
2023/08/23 12:48:27;;;;;;;340.20;289.00;;;;;;;;;;4929680;28;20447;-57
2023/08/23 12:50:52;;;;;;;463.05;332.70;;;;;;;;;;4929098;28;20290;-57
2023/08/23 12:53:17;;;;;;;447.57;403.67;;;;;;;;;;4932068;28;20106;-58
2023/08/23 12:55:43;;;;;;;446.35;400.23;;;;;;;;;;4931665;28;20590;-58
2023/08/23 12:58:09;;;;;;;321.40;236.38;;;;;;;;;;4928729;28;20079;-58
2023/08/23 13:00:34;;;;;;;433.85;390.63;;;;;;;;;;4927166;28;20140;-59
2023/08/23 13:03:00;;;;;;;373.50;286.57;;;;;;;;;;4928071;28;20035;-59
2023/08/23 13:05:25;;;;;;;440.52;393.33;;;;;;;;;;4928065;28;20031;-58
2023/08/23 13:07:50;;;;;;;331.35;293.10;;;;;;;;;;4931239;28;20023;-57
2023/08/23 13:10:16;;;;;;;388.77;348.83;;;;;;;;;;4928310;28;20015;-58
2023/08/23 13:12:41;;;;;;;284.23;216.15;;;;;;;;;;4929191;28;20107;-58
2023/08/23 13:15:07;;;;;;;416.53;316.53;;;;;;;;;;4929486;28;20110;-57
2023/08/23 13:17:32;;;;;;;307.38;255.52;;;;;;;;;;4930360;28;20094;-57
2023/08/23 13:19:57;;;;;;;500.00;367.17;;;;;;;;;;4927594;28;20043;-57
2023/08/23 13:22:22;;;;;;;234.47;154.80;;;;;;;;;;4929028;28;20043;-57
2023/08/23 13:24:49;;;;;;;346.20;305.13;;;;;;;;;;4928813;28;20038;-58
2023/08/23 13:27:14;;;;;;;188.85;130.07;;;;;;;;;;4927974;28;20182;-58
2023/08/23 13:29:39;;;;;;;348.50;304.53;;;;;;;;;;4931206;28;20015;-56
2023/08/23 13:32:05;;;;;;;372.90;270.00;;;;;;;;;;4931586;28;20130;-57
2023/08/23 13:34:30;;;;;;;441.63;394.65;;;;;;;;;;4931843;28;20270;-56
2023/08/23 13:36:55;;;;;;;439.83;383.13;;;;;;;;;;4931152;28;20083;-57
2023/08/23 13:39:21;;;;;;;289.55;230.13;;;;;;;;;;4934319;28;20287;-56
2023/08/23 13:41:46;;;;;;;284.40;235.87;;;;;;;;;;4932608;28;20039;-57
2023/08/23 13:44:12;;;;;;;307.17;270.17;;;;;;;;;;4929193;28;20035;-57
2023/08/23 13:46:38;;;;;;;224.02;177.05;;;;;;;;;;4932644;28;20739;-56
2023/08/23 13:49:04;;;;;;;420.70;289.35;;;;;;;;;;4931398;28;20332;-56